Time;durP1;ratioP1;P1;durP2;ratioP2;P2;SDS_P1;SDS_P2;PMS_P1;PMS_P2;Temp;Humidity;BMP_temperature;BMP_pressure;BME280_temperature;BME280_humidity;BME280_pressure;Samples;Min_cycle;Max_cycle;Signal;HPM_P1;HPM_P2
2021/09/01 00:01:58;;;;;;;5.88;1.08;;;;;;;16.43;100.00;101600.84;4973638;28;20029;-76
2021/09/01 00:05:01;;;;;;;3.88;0.80;;;;;;;16.54;100.00;101594.72;4974354;28;20699;-75
2021/09/01 00:08:04;;;;;;;3.22;0.82;;;;;;;16.83;100.00;101594.13;4973817;28;20937;-75
2021/09/01 00:11:07;;;;;;;2.45;0.90;;;;;;;16.91;100.00;101601.75;4972375;28;20216;-75
2021/09/01 00:14:11;;;;;;;2.53;0.63;;;;;;;16.73;100.00;101601.03;4971581;28;20415;-76
2021/09/01 00:17:14;;;;;;;1.40;0.55;;;;;;;16.81;100.00;101602.25;4971712;28;20021;-76
2021/09/01 00:20:17;;;;;;;5.28;0.68;;;;;;;17.10;100.00;101608.06;4969573;28;20053;-76
2021/09/01 00:23:20;;;;;;;0.88;0.88;;;;;;;17.45;100.00;101601.38;4973678;28;20098;-77
2021/09/01 00:26:24;;;;;;;1.45;0.40;;;;;;;17.37;100.00;101605.81;4973148;28;20061;-76
2021/09/01 00:29:27;;;;;;;2.15;0.90;;;;;;;17.11;100.00;101606.78;4975580;28;20080;-76
2021/09/01 00:32:30;;;;;;;8.05;1.52;;;;;;;16.78;100.00;101608.84;4975158;28;20084;-75
2021/09/01 00:35:33;;;;;;;1.67;0.90;;;;;;;16.19;100.00;101613.22;4973949;28;20150;-77
2021/09/01 00:38:37;;;;;;;6.45;0.95;;;;;;;15.70;100.00;101616.25;4974678;28;20104;-79
2021/09/01 00:41:39;;;;;;;1.25;0.63;;;;;;;15.62;100.00;101617.81;4972891;28;21179;-78
2021/09/01 00:44:42;;;;;;;1.83;0.80;;;;;;;15.79;100.00;101613.44;4974392;28;20040;-79
2021/09/01 00:47:45;;;;;;;4.25;1.30;;;;;;;15.83;100.00;101614.06;4974884;28;20216;-79
2021/09/01 00:50:51;;;;;;;3.92;0.88;;;;;;;15.79;100.00;101619.03;4977706;28;20076;-79
2021/09/01 00:53:54;;;;;;;4.25;0.65;;;;;;;15.94;100.00;101614.34;4977878;28;21067;-77
2021/09/01 00:57:04;;;;;;;0.90;0.73;;;;;;;16.24;100.00;101615.41;4977919;28;20052;-76
2021/09/01 01:00:10;;;;;;;1.65;1.00;;;;;;;16.31;100.00;101621.47;4968025;28;20029;-77
2021/09/01 01:03:14;;;;;;;4.03;1.38;;;;;;;16.64;100.00;101611.09;4977101;28;20037;-77
2021/09/01 01:06:22;;;;;;;3.78;1.40;;;;;;;16.44;100.00;101608.00;4977077;28;20037;-77
2021/09/01 01:09:25;;;;;;;0.88;0.68;;;;;;;15.93;100.00;101615.63;4979508;28;20045;-77
2021/09/01 01:12:28;;;;;;;5.53;0.75;;;;;;;15.99;100.00;101610.91;4983804;28;20052;-77
2021/09/01 01:15:31;;;;;;;3.05;0.70;;;;;;;16.03;100.00;101611.53;4981578;28;20037;-77
2021/09/01 01:18:35;;;;;;;1.35;0.85;;;;;;;16.39;100.00;101607.88;4982302;28;20092;-76
2021/09/01 01:21:38;;;;;;;3.83;0.90;;;;;;;16.06;100.00;101616.22;4981967;28;21344;-77
2021/09/01 01:24:45;;;;;;;2.78;0.88;;;;;;;15.74;100.00;101612.03;4971318;28;20112;-77
2021/09/01 01:27:48;;;;;;;2.40;0.82;;;;;;;15.48;100.00;101610.00;4984660;28;20095;-76
2021/09/01 01:30:51;;;;;;;1.40;1.00;;;;;;;15.44;100.00;101612.19;4982240;28;20057;-76
2021/09/01 01:33:55;;;;;;;2.70;1.35;;;;;;;15.45;100.00;101611.72;4980759;28;20029;-75
2021/09/01 01:36:58;;;;;;;10.00;1.17;;;;;;;15.52;100.00;101621.88;4980696;28;20088;-79
2021/09/01 01:40:03;;;;;;;2.88;1.55;;;;;;;15.38;100.00;101631.63;4980139;28;20080;-75
2021/09/01 01:43:06;;;;;;;3.67;1.13;;;;;;;15.47;100.00;101622.47;4980210;28;20145;-75
2021/09/01 01:46:10;;;;;;;1.95;0.45;;;;;;;15.47;100.00;101631.69;4980700;28;20121;-77
2021/09/01 01:49:13;;;;;;;3.97;1.30;;;;;;;15.70;100.00;101616.25;4980252;28;20288;-79
2021/09/01 01:52:16;;;;;;;2.47;0.68;;;;;;;15.60;100.00;101611.88;4980983;28;20076;-79
2021/09/01 01:55:19;;;;;;;5.82;1.00;;;;;;;15.81;100.00;101610.94;4979930;28;20136;-79
2021/09/01 01:58:22;;;;;;;1.75;0.73;;;;;;;15.72;100.00;101608.16;4979322;28;20041;-78
2021/09/01 02:01:25;;;;;;;2.22;1.20;;;;;;;15.36;100.00;101616.50;4980407;28;20952;-77
2021/09/01 02:04:27;;;;;;;2.45;1.20;;;;;;;15.19;100.00;101614.00;4979518;28;20099;-78
2021/09/01 02:07:32;;;;;;;7.88;1.63;;;;;;;14.87;100.00;101606.13;4979633;28;20028;-79
2021/09/01 02:10:35;;;;;;;1.20;0.93;;;;;;;14.83;100.00;101605.50;4978439;28;20053;-79
2021/09/01 02:13:39;;;;;;;2.30;1.33;;;;;;;14.89;100.00;101598.03;4978647;28;20053;-79
2021/09/01 02:16:42;;;;;;;3.47;0.63;;;;;;;14.84;100.00;101600.63;4979456;28;20107;-80
2021/09/01 02:19:45;;;;;;;3.13;1.27;;;;;;;14.37;100.00;101609.31;4979904;28;21059;-79
2021/09/01 02:22:48;;;;;;;1.80;1.00;;;;;;;14.22;100.00;101605.47;4979365;28;20037;-79
2021/09/01 02:25:51;;;;;;;2.53;1.17;;;;;;;13.93;100.00;101599.34;4979586;28;20057;-78
2021/09/01 02:28:53;;;;;;;6.15;1.17;;;;;;;13.76;100.00;101612.00;4978834;28;20045;-79
2021/09/01 02:31:56;;;;;;;2.63;1.33;;;;;;;13.44;100.00;101602.72;4979512;28;20719;-79
2021/09/01 02:34:59;;;;;;;3.15;1.13;;;;;;;13.36;100.00;101606.97;4967522;28;20064;-78
2021/09/01 02:38:04;;;;;;;3.90;1.13;;;;;;;13.22;100.00;101604.69;4978851;28;20053;-78
2021/09/01 02:41:08;;;;;;;1.45;0.52;;;;;;;13.11;100.00;101612.66;4978688;28;20057;-79
2021/09/01 02:44:11;;;;;;;1.30;0.50;;;;;;;13.19;100.00;101613.22;4978121;28;20176;-79
2021/09/01 02:47:14;;;;;;;1.80;1.15;;;;;;;13.38;100.00;101610.09;4978951;28;20278;-79
2021/09/01 02:50:17;;;;;;;8.18;1.40;;;;;;;13.56;100.00;101610.28;4978672;28;20131;-79
2021/09/01 02:53:21;;;;;;;3.53;0.75;;;;;;;13.85;100.00;101606.47;4978939;28;20137;-80
2021/09/01 02:56:24;;;;;;;6.07;1.23;;;;;;;14.16;100.00;101601.72;4979048;28;20033;-78
2021/09/01 02:59:27;;;;;;;7.63;1.67;;;;;;;14.73;100.00;101584.25;4979448;28;20110;-79
2021/09/01 03:02:30;;;;;;;2.00;0.90;;;;;;;14.78;100.00;101588.47;4978618;28;20300;-78
2021/09/01 03:05:33;;;;;;;1.35;1.15;;;;;;;14.81;100.00;101585.50;4978578;28;20041;-78
2021/09/01 03:08:36;;;;;;;1.67;1.05;;;;;;;15.07;100.00;101586.81;4978680;28;20037;-79
2021/09/01 03:11:39;;;;;;;1.52;1.15;;;;;;;15.25;100.00;101574.84;4978864;28;20188;-79
2021/09/01 03:14:42;;;;;;;4.68;1.38;;;;;;;15.38;100.00;101577.50;4978652;28;20225;-79
2021/09/01 03:17:45;;;;;;;1.45;1.35;;;;;;;15.13;100.00;101578.59;4978076;28;20087;-79
2021/09/01 03:20:49;;;;;;;2.38;0.90;;;;;;;15.17;100.00;101574.38;4978397;28;20105;-78
2021/09/01 03:23:52;;;;;;;3.00;1.60;;;;;;;15.12;100.00;101571.41;4978757;28;20072;-76
2021/09/01 03:26:55;;;;;;;2.97;1.25;;;;;;;14.99;100.00;101573.56;4979625;28;20556;-79
2021/09/01 03:29:58;;;;;;;2.90;1.42;;;;;;;14.75;100.00;101567.72;4978568;28;20079;-78
2021/09/01 03:33:01;;;;;;;4.50;1.17;;;;;;;14.53;100.00;101569.06;4977234;28;20041;-79
2021/09/01 03:36:04;;;;;;;5.40;1.52;;;;;;;14.66;100.00;101562.09;4977071;28;20040;-79
2021/09/01 03:39:07;;;;;;;10.32;1.55;;;;;;;14.58;100.00;101565.63;4977865;28;20037;-79
2021/09/01 03:42:11;;;;;;;11.93;2.30;;;;;;;14.82;100.00;101569.47;4978114;28;20768;-78
2021/09/01 03:45:13;;;;;;;4.53;1.58;;;;;;;14.76;100.00;101568.53;4978059;28;20093;-79
2021/09/01 03:48:16;;;;;;;3.08;1.15;;;;;;;14.64;100.00;101564.56;4978171;28;20032;-79
2021/09/01 03:51:19;;;;;;;5.40;1.13;;;;;;;14.73;100.00;101556.19;4977525;28;20104;-79
2021/09/01 03:54:22;;;;;;;4.43;2.25;;;;;;;14.91;100.00;101561.06;4978019;28;20127;-80
2021/09/01 03:57:25;;;;;;;2.63;0.98;;;;;;;15.03;100.00;101552.53;4977914;28;20036;-80
2021/09/01 04:00:28;;;;;;;4.20;1.52;;;;;;;15.34;100.00;101543.19;4978767;28;20041;-80
2021/09/01 04:03:31;;;;;;;4.47;1.65;;;;;;;15.34;100.00;101546.00;4966648;28;20028;-79
2021/09/01 04:06:34;;;;;;;3.95;1.08;;;;;;;15.53;100.00;101539.94;4977314;28;20103;-78
2021/09/01 04:09:37;;;;;;;2.47;1.05;;;;;;;15.48;100.00;101537.78;4957643;28;20049;-79
2021/09/01 04:12:40;;;;;;;3.80;1.80;;;;;;;16.13;100.00;101539.22;4958281;28;20087;-77
2021/09/01 04:15:43;;;;;;;4.80;1.38;;;;;;;16.28;100.00;101538.09;4957245;28;20069;-78
2021/09/01 04:18:46;;;;;;;4.90;1.38;;;;;;;16.24;100.00;101531.84;4957128;28;20033;-77
2021/09/01 04:21:49;;;;;;;6.28;1.75;;;;;;;16.01;100.00;101529.72;4958488;28;20177;-77
2021/09/01 04:24:52;;;;;;;3.10;1.20;;;;;;;15.87;100.00;101524.78;4957986;28;20112;-77
2021/09/01 04:27:55;;;;;;;1.85;1.02;;;;;;;15.70;100.00;101527.13;4956815;28;20064;-77
2021/09/01 04:30:58;;;;;;;1.95;0.70;;;;;;;15.79;100.00;101526.34;4956636;28;20113;-77
2021/09/01 04:34:01;;;;;;;2.60;1.23;;;;;;;15.76;100.00;101528.09;4967859;28;20036;-78
2021/09/01 04:37:04;;;;;;;4.32;1.00;;;;;;;15.71;100.00;101522.31;4957668;28;20352;-78
2021/09/01 04:40:07;;;;;;;0.95;0.80;;;;;;;15.53;100.00;101527.94;4957866;28;20088;-78
2021/09/01 04:43:11;;;;;;;7.97;0.80;;;;;;;15.42;100.00;101522.75;4957256;28;20061;-77
2021/09/01 04:46:14;;;;;;;7.05;1.63;;;;;;;15.50;100.00;101526.88;4957360;28;20165;-77
2021/09/01 04:49:17;;;;;;;3.80;1.00;;;;;;;13.75;100.00;101534.84;4957489;28;20045;-78
2021/09/01 04:52:20;;;;;;;4.47;1.08;;;;;;;15.43;100.00;101529.16;4956565;28;20084;-78
2021/09/01 04:55:23;;;;;;;2.55;0.85;;;;;;;12.75;100.00;101556.31;4956682;28;20033;-77
2021/09/01 04:58:26;;;;;;;1.40;0.52;;;;;;;12.39;100.00;101561.47;4957145;28;20033;-77
2021/09/01 05:01:29;;;;;;;2.60;1.30;;;;;;;13.18;100.00;101564.84;4957200;28;20114;-78
2021/09/01 05:04:32;;;;;;;1.63;1.10;;;;;;;12.29;100.00;101556.97;4956639;28;20205;-77
2021/09/01 05:07:35;;;;;;;0.85;0.60;;;;;;;12.54;100.00;101565.38;4961820;28;20033;-77
2021/09/01 05:10:38;;;;;;;4.25;1.80;;;;;;;12.52;100.00;101562.22;4977476;28;20131;-78
2021/09/01 05:13:40;;;;;;;4.78;0.93;;;;;;;12.59;100.00;101564.81;4977035;28;20112;-78
2021/09/01 05:16:43;;;;;;;1.42;0.82;;;;;;;12.59;100.00;101564.81;4976806;28;20623;-77
2021/09/01 05:19:47;;;;;;;4.13;1.00;;;;;;;12.39;100.00;101565.03;4976241;28;20032;-78
2021/09/01 05:23:01;;;;;;;18.27;1.30;;;;;;;12.30;100.00;101570.50;4976436;28;20033;-77
2021/09/01 05:26:06;;;;;;;3.80;0.70;;;;;;;12.32;100.00;101572.84;4976162;28;20204;-77
2021/09/01 05:29:10;;;;;;;2.83;1.17;;;;;;;12.31;100.00;101576.88;4976521;28;21120;-77
2021/09/01 05:32:16;;;;;;;3.80;1.40;;;;;;;12.23;100.00;101572.72;4976555;28;20033;-77
2021/09/01 05:35:19;;;;;;;10.00;1.15;;;;;;;12.16;100.00;101574.50;4975726;28;20715;-77
2021/09/01 05:38:22;;;;;;;2.92;1.40;;;;;;;12.15;100.00;101580.53;4976135;28;20041;-77
2021/09/01 05:41:28;;;;;;;4.32;0.50;;;;;;;12.33;100.00;101586.38;4976418;28;20068;-77
2021/09/01 05:44:32;;;;;;;8.52;0.90;;;;;;;13.94;100.00;101579.31;4976093;28;20105;-77
2021/09/01 05:47:36;;;;;;;3.55;1.15;;;;;;;12.43;100.00;101581.69;4975682;28;20037;-77
2021/09/01 05:50:42;;;;;;;4.97;1.38;;;;;;;12.37;100.00;101580.66;4975612;28;20891;-77
2021/09/01 05:53:45;;;;;;;4.75;1.75;;;;;;;13.17;100.00;101577.28;4976247;28;20704;-77
2021/09/01 05:56:50;;;;;;;7.68;2.20;;;;;;;15.32;100.00;101562.53;4978394;28;20230;-77
2021/09/01 05:59:53;;;;;;;7.70;1.95;;;;;;;15.53;100.00;101561.63;4979811;28;20065;-76
2021/09/01 06:03:08;;;;;;;3.10;0.70;;;;;;;15.76;100.00;101556.19;4979515;28;20041;-76
2021/09/01 06:06:15;;;;;;;4.10;1.83;;;;;;;16.15;100.00;101557.19;4979258;28;20033;-76
2021/09/01 06:09:19;;;;;;;6.20;2.03;;;;;;;16.20;100.00;101559.34;4979487;28;20053;-77
2021/09/01 06:12:23;;;;;;;3.85;0.93;;;;;;;16.09;100.00;101563.91;4978995;28;21015;-76
2021/09/01 06:15:26;;;;;;;2.35;1.05;;;;;;;16.42;100.00;101554.28;4979788;28;21135;-77
2021/09/01 06:18:29;;;;;;;12.57;1.85;;;;;;;16.38;100.00;101553.66;4979340;28;20793;-76
2021/09/01 06:21:33;;;;;;;2.40;1.38;;;;;;;13.38;100.00;101570.94;4979354;28;20037;-77
2021/09/01 06:24:37;;;;;;;5.50;1.80;;;;;;;16.30;100.00;101563.69;4978608;28;20045;-77
2021/09/01 06:27:40;;;;;;;2.92;1.60;;;;;;;15.34;100.00;101565.66;4979669;28;20084;-77
2021/09/01 06:30:43;;;;;;;3.42;1.80;;;;;;;13.69;100.00;101583.03;4978547;28;20053;-76
2021/09/01 06:33:45;;;;;;;19.00;1.83;;;;;;;13.48;100.00;101592.19;4978970;28;20112;-77
2021/09/01 06:36:49;;;;;;;3.95;1.15;;;;;;;13.30;100.00;101585.63;4978912;28;20045;-77
2021/09/01 06:39:53;;;;;;;2.60;1.88;;;;;;;13.29;100.00;101596.06;4979543;28;20118;-76
2021/09/01 06:42:56;;;;;;;3.45;1.73;;;;;;;13.29;100.00;101601.66;4979804;28;20037;-77
2021/09/01 06:45:59;;;;;;;5.57;0.75;;;;;;;13.40;100.00;101602.06;4979007;28;20037;-77
2021/09/01 06:49:02;;;;;;;5.88;1.73;;;;;;;13.48;100.00;101608.97;4979920;28;21141;-77
2021/09/01 06:52:08;;;;;;;5.15;1.70;;;;;;;13.51;100.00;101613.66;4981144;28;20033;-77
2021/09/01 06:55:13;;;;;;;1.75;1.30;;;;;;;13.42;100.00;101602.41;4981495;28;20507;-76
2021/09/01 06:58:18;;;;;;;2.80;1.83;;;;;;;13.59;100.00;101608.59;4980912;28;20106;-76
2021/09/01 07:01:22;;;;;;;8.55;1.38;;;;;;;13.50;100.00;101606.50;4980464;28;20056;-77
2021/09/01 07:04:25;;;;;;;9.93;2.00;;;;;;;13.60;100.00;101605.34;4979709;28;20057;-77
2021/09/01 07:07:28;;;;;;;2.22;0.88;;;;;;;13.65;100.00;101592.78;4979400;28;20044;-76
2021/09/01 07:10:32;;;;;;;8.35;1.55;;;;;;;13.75;100.00;101588.03;4978774;28;20538;-78
2021/09/01 07:13:34;;;;;;;2.67;1.20;;;;;;;16.29;100.00;101564.94;4979371;28;20084;-77
2021/09/01 07:16:37;;;;;;;2.90;1.20;;;;;;;13.81;100.00;101580.63;4978750;28;20837;-77
2021/09/01 07:19:40;;;;;;;4.57;1.60;;;;;;;13.51;100.00;101584.91;4978581;28;20088;-77
2021/09/01 07:22:43;;;;;;;3.45;1.10;;;;;;;13.46;100.00;101599.47;4979343;28;20036;-77
2021/09/01 07:25:46;;;;;;;4.20;0.85;;;;;;;13.42;100.00;101602.41;4979761;28;20197;-77
2021/09/01 07:28:49;;;;;;;6.03;2.08;;;;;;;15.18;100.00;101604.00;4980154;28;20208;-77
2021/09/01 07:31:52;;;;;;;13.18;1.80;;;;;;;16.77;100.00;101576.31;4977949;28;20052;-77
2021/09/01 07:34:55;;;;;;;5.28;1.88;;;;;;;17.29;100.00;101572.88;4980044;28;20107;-76
2021/09/01 07:37:58;;;;;;;2.67;1.52;;;;;;;17.54;100.00;101575.22;4979308;28;21085;-76
2021/09/01 07:41:01;;;;;;;7.35;1.55;;;;;;;17.75;100.00;101576.91;4978134;28;20036;-77
2021/09/01 07:44:05;;;;;;;15.25;2.78;;;;;;;17.82;100.00;101573.69;4979212;28;20257;-78
2021/09/01 07:47:09;;;;;;;3.42;1.15;;;;;;;17.91;100.00;101575.69;4977180;28;20040;-78
2021/09/01 07:50:12;;;;;;;4.38;0.85;;;;;;;14.42;100.00;101591.91;4976232;28;20045;-77
2021/09/01 07:53:15;;;;;;;2.58;1.05;;;;;;;13.92;100.00;101597.81;4976281;28;20117;-77
2021/09/01 07:56:19;;;;;;;3.15;1.15;;;;;;;13.72;100.00;101614.13;4976790;28;20092;-78
2021/09/01 07:59:22;;;;;;;3.15;1.42;;;;;;;13.64;100.00;101619.22;4978002;28;20123;-78
2021/09/01 08:02:25;;;;;;;8.45;1.73;;;;;;;13.62;100.00;101619.66;4977269;28;20471;-77
2021/09/01 08:05:28;;;;;;;2.45;1.50;;;;;;;13.69;100.00;101625.00;4977718;28;20036;-77
2021/09/01 08:08:31;;;;;;;2.03;1.00;;;;;;;13.69;100.00;101618.63;4975592;28;20155;-78
2021/09/01 08:11:34;;;;;;;2.83;1.17;;;;;;;13.70;100.00;101637.00;4976357;28;20053;-78
2021/09/01 08:14:37;;;;;;;5.25;1.17;;;;;;;13.67;100.00;101635.88;4976933;28;20037;-77
2021/09/01 08:17:40;;;;;;;5.38;1.60;;;;;;;13.73;100.00;101638.13;4975788;28;20037;-77
2021/09/01 08:20:43;;;;;;;4.18;0.95;;;;;;;14.21;100.00;101632.72;4977760;28;20092;-77
2021/09/01 08:23:46;;;;;;;2.95;1.13;;;;;;;14.08;100.00;101634.00;4976812;28;20033;-78
2021/09/01 08:26:49;;;;;;;3.10;1.33;;;;;;;14.04;100.00;101636.97;4976903;28;20048;-78
2021/09/01 08:59:53;;;;;;;12.63;3.88;;;;;;;13.93;100.00;101649.78;5110027;27;20369;-50
2021/09/01 09:02:58;;;;;;;11.50;3.20;;;;;;;13.79;100.00;101650.28;5109245;28;20498;-49
2021/09/01 09:06:04;;;;;;;2.17;1.17;;;;;;;13.74;100.00;101648.06;5109944;28;20047;-48
2021/09/01 09:09:12;;;;;;;4.07;1.63;;;;;;;13.71;100.00;101646.94;5089467;28;20043;-49
2021/09/01 09:12:16;;;;;;;5.30;1.40;;;;;;;13.87;100.00;101640.41;5089438;28;20059;-48
2021/09/01 09:15:19;;;;;;;2.50;1.10;;;;;;;14.12;100.00;101641.03;5089677;28;20046;-49
2021/09/01 09:18:27;;;;;;;4.60;1.00;;;;;;;14.00;100.00;101650.31;5089220;28;20040;-48
2021/09/01 09:21:35;;;;;;;6.47;1.85;;;;;;;14.05;100.00;101651.75;5089806;28;20449;-48
2021/09/01 09:24:39;;;;;;;3.17;1.25;;;;;;;14.12;100.00;101651.50;5090058;28;20047;-49
2021/09/01 09:27:48;;;;;;;3.50;1.40;;;;;;;14.25;100.00;101643.81;5089998;28;20043;-48
2021/09/01 09:30:51;;;;;;;4.05;1.23;;;;;;;14.35;100.00;101642.63;5089917;28;20090;-48
2021/09/01 09:33:54;;;;;;;5.05;1.17;;;;;;;14.40;100.00;101644.84;5089524;28;20085;-48
2021/09/01 09:37:12;;;;;;;2.92;0.50;;;;;;;14.46;100.00;101643.03;5089345;28;20046;-48
2021/09/01 09:40:16;;;;;;;6.75;0.90;;;;;;;17.77;100.00;101608.22;5089754;28;20461;-49
2021/09/01 09:43:21;;;;;;;2.22;0.93;;;;;;;19.00;100.00;101603.38;5092954;28;20434;-50
2021/09/01 09:46:26;;;;;;;3.63;1.40;;;;;;;19.54;100.00;101608.25;5109477;28;20526;-49
2021/09/01 09:49:31;;;;;;;3.38;1.10;;;;;;;15.42;100.00;101615.41;5109484;28;20399;-49
2021/09/01 09:52:37;;;;;;;3.30;1.05;;;;;;;14.87;100.00;101627.78;5088746;28;20048;-49
2021/09/01 09:56:11;;;;;;;2.10;0.50;;;;;;;15.06;100.00;101620.97;5089161;28;20396;-50
2021/09/01 09:59:19;;;;;;;3.83;1.30;;;;;;;15.01;100.00;101619.56;5083663;28;20468;-49
2021/09/01 10:02:21;;;;;;;3.95;1.13;;;;;;;15.61;100.00;101613.44;5075605;28;20121;-50
2021/09/01 10:05:28;;;;;;;4.30;1.10;;;;;;;15.83;100.00;101614.06;5075219;28;20110;-50
2021/09/01 10:08:34;;;;;;;2.28;1.17;;;;;;;15.74;100.00;101616.88;5075243;28;20043;-49
2021/09/01 10:11:39;;;;;;;3.25;1.50;;;;;;;15.55;100.00;101615.31;5075235;28;20085;-49
2021/09/01 10:14:43;;;;;;;1.55;0.63;;;;;;;15.34;100.00;101611.34;5074938;28;20526;-50
2021/09/01 10:17:48;;;;;;;4.97;1.17;;;;;;;15.18;100.00;101614.47;5075064;28;20055;-49
2021/09/01 10:20:52;;;;;;;5.60;1.40;;;;;;;14.99;100.00;101624.06;5075386;28;20131;-49
2021/09/01 10:23:55;;;;;;;3.58;0.65;;;;;;;14.90;100.00;101630.44;5074799;28;20115;-49
2021/09/01 10:27:19;;;;;;;2.88;1.30;;;;;;;14.80;100.00;101628.84;5075169;28;20040;-49
2021/09/01 10:30:23;;;;;;;8.60;1.55;;;;;;;14.77;100.00;101635.34;5075323;28;20113;-49
2021/09/01 10:33:46;;;;;;;6.78;2.08;;;;;;;14.59;100.00;101634.50;5075130;28;20038;-48
2021/09/01 10:36:52;;;;;;;5.10;1.38;;;;;;;14.60;100.00;101636.06;5074920;28;20492;-48
2021/09/01 10:39:55;;;;;;;7.88;1.13;;;;;;;14.76;100.00;101639.44;5075194;28;20379;-48
2021/09/01 10:43:00;;;;;;;2.20;0.90;;;;;;;14.88;100.00;101638.53;5075616;28;20461;-48
2021/09/01 10:46:04;;;;;;;9.38;2.47;;;;;;;15.49;100.00;101634.03;5095571;28;20050;-48
2021/09/01 10:49:07;;;;;;;5.53;2.03;;;;;;;18.82;100.00;101592.34;5095194;28;20105;-48
2021/09/01 10:52:09;;;;;;;3.15;1.35;;;;;;;19.39;100.00;101596.25;5094919;28;20051;-49
2021/09/01 10:55:13;;;;;;;4.00;1.98;;;;;;;18.24;100.00;101598.03;5095218;28;20054;-49
2021/09/01 10:58:19;;;;;;;7.03;2.45;;;;;;;19.92;100.00;101586.56;5095043;28;20094;-49
2021/09/01 11:01:23;;;;;;;7.38;1.30;;;;;;;20.11;100.00;101588.56;5094718;28;20065;-48
2021/09/01 11:04:26;;;;;;;4.53;1.00;;;;;;;19.16;100.00;101585.91;5094924;28;20549;-49
2021/09/01 11:07:31;;;;;;;6.20;1.88;;;;;;;20.72;100.00;101583.44;5075995;28;20103;-49
2021/09/01 11:10:34;;;;;;;2.38;0.73;;;;;;;17.19;100.00;101583.44;5073646;28;20044;-49
2021/09/01 11:13:41;;;;;;;3.67;1.00;;;;;;;16.83;100.00;101588.50;5074722;28;20136;-49
2021/09/01 11:16:52;;;;;;;3.25;1.13;;;;;;;16.82;100.00;101589.75;5074441;28;20044;-49
2021/09/01 11:19:58;;;;;;;3.53;1.88;;;;;;;16.85;100.00;101589.56;5073350;28;20039;-49
2021/09/01 11:23:02;;;;;;;2.83;1.20;;;;;;;16.90;100.00;101590.94;5074424;28;20112;-49
2021/09/01 11:26:08;;;;;;;5.97;1.00;;;;;;;16.77;100.00;101593.22;5074286;28;20042;-49
2021/09/01 11:29:12;;;;;;;4.22;0.88;;;;;;;16.60;100.00;101587.97;5073802;28;20530;-49
2021/09/01 11:32:18;;;;;;;1.25;0.52;;;;;;;16.47;100.00;101592.22;5073657;28;20071;-49
2021/09/01 11:35:23;;;;;;;2.78;1.40;;;;;;;16.37;100.00;101590.69;5074002;28;20035;-49
2021/09/01 11:38:26;;;;;;;2.65;0.90;;;;;;;16.48;100.00;101574.88;5073887;28;20094;-49
2021/09/01 11:41:29;;;;;;;2.42;1.10;;;;;;;16.75;100.00;101578.84;5073672;28;20051;-49
2021/09/01 11:44:33;;;;;;;6.50;1.13;;;;;;;16.88;100.00;101573.78;5088051;28;20085;-49
2021/09/01 11:47:42;;;;;;;3.47;1.17;;;;;;;16.98;100.00;101572.47;5093733;28;20071;-49
2021/09/01 11:50:47;;;;;;;3.35;0.90;;;;;;;17.03;100.00;101575.41;5093845;28;20071;-49
2021/09/01 11:53:50;;;;;;;5.55;0.75;;;;;;;17.09;100.00;101578.31;5093872;28;20069;-49
2021/09/01 11:56:53;;;;;;;2.42;1.05;;;;;;;17.16;100.00;101573.13;5093842;28;20046;-49
2021/09/01 12:00:02;;;;;;;2.63;1.42;;;;;;;17.19;100.00;101580.63;5093525;28;20088;-49
2021/09/01 12:03:05;;;;;;;2.22;1.38;;;;;;;17.18;100.00;101581.88;5093828;28;20042;-49
2021/09/01 12:06:09;;;;;;;1.48;0.20;;;;;;;17.17;100.00;101579.53;5093691;28;20057;-49
2021/09/01 12:09:14;;;;;;;7.82;0.70;;;;;;;17.08;100.00;101580.38;5093195;28;20066;-50
2021/09/01 12:12:17;;;;;;;2.55;0.52;;;;;;;17.01;100.00;101589.19;5093548;28;20116;-49
2021/09/01 12:15:20;;;;;;;3.30;1.27;;;;;;;16.98;100.00;101583.75;5093278;28;20078;-49
2021/09/01 12:18:23;;;;;;;4.63;1.55;;;;;;;16.88;100.00;101574.56;5093611;28;20039;-50
2021/09/01 12:21:43;;;;;;;3.00;0.85;;;;;;;16.94;100.00;101567.00;5093242;28;20059;-49
2021/09/01 12:24:45;;;;;;;2.38;1.10;;;;;;;17.13;100.00;101567.69;5092684;28;20046;-50
2021/09/01 12:28:11;;;;;;;7.95;2.70;;;;;;;17.28;100.00;101568.53;5092822;28;20047;-49
2021/09/01 12:31:23;;;;;;;6.43;1.63;;;;;;;17.37;100.00;101571.25;5093455;28;20125;-49
2021/09/01 12:34:27;;;;;;;;;;;;;;;17.30;100.00;101571.63;5093703;28;20101;-49
2021/09/01 12:37:37;;;;;;;7.65;1.65;;;;;;;17.21;100.00;101575.28;5093100;28;19938;-49
2021/09/01 12:40:40;;;;;;;2.03;0.57;;;;;;;17.05;100.00;101572.09;5092726;28;20054;-49
2021/09/01 12:43:43;;;;;;;2.20;1.10;;;;;;;16.88;100.00;101568.94;5092878;28;20399;-49
2021/09/01 12:46:45;;;;;;;2.00;1.25;;;;;;;16.67;100.00;101570.75;5092694;28;20082;-49
2021/09/01 12:49:53;;;;;;;3.58;1.48;;;;;;;16.61;100.00;101569.09;5093155;28;20039;-49
2021/09/01 12:52:57;;;;;;;4.63;1.45;;;;;;;16.55;100.00;101563.31;5092989;28;20049;-49
2021/09/01 12:56:01;;;;;;;8.75;1.40;;;;;;;16.36;100.00;101569.44;5092920;28;20093;-49
2021/09/01 12:59:04;;;;;;;4.63;1.42;;;;;;;16.34;100.00;101569.16;5092708;28;20125;-49
2021/09/01 13:02:09;;;;;;;2.30;1.63;;;;;;;16.26;100.00;101568.72;5092003;28;20050;-49
2021/09/01 13:05:12;;;;;;;4.63;1.20;;;;;;;16.13;100.00;101559.69;5092975;28;20042;-49
2021/09/01 13:08:15;;;;;;;3.42;1.13;;;;;;;16.26;100.00;101557.47;5093008;28;20047;-49
2021/09/01 13:11:18;;;;;;;13.05;3.08;;;;;;;16.43;100.00;101550.22;5092626;28;20042;-49
2021/09/01 13:14:22;;;;;;;5.28;1.50;;;;;;;16.38;100.00;101550.84;5092622;28;20043;-49
2021/09/01 13:17:25;;;;;;;4.93;1.70;;;;;;;16.53;100.00;101554.56;5092805;28;20050;-49
2021/09/01 13:20:28;;;;;;;5.97;2.25;;;;;;;16.93;100.00;101547.78;5092626;28;20093;-50
2021/09/01 13:23:31;;;;;;;5.85;2.22;;;;;;;17.06;100.00;101545.53;5092492;28;20054;-49
2021/09/01 13:26:35;;;;;;;5.30;1.85;;;;;;;17.23;100.00;101532.56;5092534;28;20043;-50
2021/09/01 13:29:39;;;;;;;5.30;1.60;;;;;;;17.70;100.00;101532.50;5092722;28;20403;-50
2021/09/01 13:32:43;;;;;;;4.80;2.55;;;;;;;17.54;100.00;101523.75;5092633;28;20050;-49
2021/09/01 13:35:46;;;;;;;7.13;1.23;;;;;;;17.52;100.00;101529.09;5095519;28;20165;-49
2021/09/01 13:38:49;;;;;;;6.07;2.13;;;;;;;17.48;100.00;101529.22;5096534;28;20088;-50
2021/09/01 13:41:52;;;;;;;2.50;1.23;;;;;;;17.52;100.00;101521.38;5096110;28;20047;-49
2021/09/01 13:44:55;;;;;;;6.18;1.83;;;;;;;17.52;100.00;101518.56;5096140;28;20085;-49
2021/09/01 13:47:58;;;;;;;4.43;1.23;;;;;;;17.45;100.00;101521.75;5096036;28;20102;-49
2021/09/01 13:51:03;;;;;;;4.32;1.52;;;;;;;17.43;100.00;101513.00;5096067;28;20096;-49
2021/09/01 13:54:05;;;;;;;4.63;1.00;;;;;;;17.41;100.00;101518.34;5096038;28;20523;-49
2021/09/01 13:57:10;;;;;;;3.80;1.52;;;;;;;17.30;100.00;101515.31;5096470;28;20043;-49
2021/09/01 14:00:14;;;;;;;3.50;1.52;;;;;;;17.50;100.00;101518.28;5095692;28;20477;-49
2021/09/01 14:03:22;;;;;;;4.35;1.50;;;;;;;18.23;100.00;101511.88;5095971;28;20047;-50
2021/09/01 14:06:24;;;;;;;4.90;1.65;;;;;;;21.08;100.00;101511.84;5095849;28;20039;-50
2021/09/01 14:09:27;;;;;;;4.32;2.03;;;;;;;21.50;100.00;101501.66;5095944;28;20039;-49
2021/09/01 14:12:30;;;;;;;10.05;2.72;;;;;;;22.15;100.00;101502.28;5095570;28;20051;-50
2021/09/01 14:15:34;;;;;;;6.90;2.72;;;;;;;22.22;100.00;101504.59;5095780;28;20165;-50
2021/09/01 14:18:37;;;;;;;9.18;1.90;;;;;;;22.50;100.00;101503.25;5095974;28;20372;-50
2021/09/01 14:21:40;;;;;;;7.38;2.42;;;;;;;22.14;100.00;101498.66;5096155;28;20101;-49
2021/09/01 14:24:42;;;;;;;4.47;2.20;;;;;;;22.13;100.00;101502.81;5095802;28;20039;-50
2021/09/01 14:27:46;;;;;;;3.70;1.40;;;;;;;22.20;100.00;101490.91;5095194;28;20047;-50
2021/09/01 14:30:49;;;;;;;5.70;1.55;;;;;;;22.51;100.00;101493.47;5095315;28;20503;-49
2021/09/01 14:33:53;;;;;;;4.97;2.03;;;;;;;22.61;100.00;101491.13;5094888;28;20100;-50
2021/09/01 14:36:55;;;;;;;7.75;2.08;;;;;;;22.45;100.00;101495.53;5095201;28;20043;-49